Time;durP1;ratioP1;P1;durP2;ratioP2;P2;SDS_P1;SDS_P2;PMS_P1;PMS_P2;Temp;Humidity;BMP_temperature;BMP_pressure;BME280_temperature;BME280_humidity;BME280_pressure;Samples;Min_cycle;Max_cycle;Signal;HPM_P1;HPM_P2
2023/07/14 00:00:12;;;;;;;3.08;2.10;;;;;;;23.11;60.43;99739.25;4338741;33;20088;-95
2023/07/14 00:03:28;;;;;;;4.37;2.37;;;;;;;23.12;60.44;99738.28;4337241;33;20087;-96
2023/07/14 00:05:54;;;;;;;3.35;2.42;;;;;;;23.00;60.42;99740.16;4351147;33;20095;-96
2023/07/14 00:11:22;;;;;;;4.28;2.60;;;;;;;22.82;60.43;99752.31;4514891;27;20196;-95
2023/07/14 00:13:48;;;;;;;4.68;2.37;;;;;;;22.91;60.43;99747.06;4306383;33;189001;-94
2023/07/14 00:16:17;;;;;;;3.22;2.22;;;;;;;22.91;60.43;99757.69;4301980;33;20086;-96
2023/07/14 00:18:49;;;;;;;3.80;2.62;;;;;;;22.90;60.42;99749.84;4298549;33;20176;-96
2023/07/14 00:21:19;;;;;;;4.70;2.35;;;;;;;22.78;60.41;99751.69;4300178;33;20094;-96
2023/07/14 00:23:44;;;;;;;6.53;3.53;;;;;;;22.80;60.42;99749.75;4312918;33;20193;-96
2023/07/14 00:26:14;;;;;;;5.15;2.80;;;;;;;22.95;60.42;99751.16;4324968;32;20116;-95
2023/07/14 00:28:40;;;;;;;4.18;2.50;;;;;;;22.98;60.43;99751.88;4312215;33;20103;-95
2023/07/14 00:31:12;;;;;;;6.62;2.75;;;;;;;22.78;60.42;99758.81;4298889;33;20138;-92
2023/07/14 00:33:38;;;;;;;5.87;2.55;;;;;;;22.80;60.42;99763.00;4308407;33;20072;-94
2023/07/14 00:36:04;;;;;;;8.02;2.75;;;;;;;22.98;60.44;99762.50;4309433;33;20100;-94
2023/07/14 00:38:29;;;;;;;2.80;2.05;;;;;;;22.90;60.43;99750.69;4287234;33;20103;-94
2023/07/14 00:40:54;;;;;;;3.58;2.20;;;;;;;22.60;60.41;99756.69;4312942;33;20169;-93
2023/07/14 00:43:21;;;;;;;5.22;2.37;;;;;;;22.66;60.42;99758.00;4303281;33;20103;-93
2023/07/14 00:45:51;;;;;;;3.87;2.42;;;;;;;22.48;60.40;99756.84;4305450;33;20100;-93
2023/07/14 00:48:18;;;;;;;4.62;2.67;;;;;;;22.61;60.41;99757.53;4293705;33;20127;-95
2023/07/14 00:51:06;;;;;;;6.32;2.67;;;;;;;22.44;60.40;99760.69;4313676;33;20150;-95
2023/07/14 00:53:34;;;;;;;4.68;3.00;;;;;;;22.48;60.40;99759.50;4273592;33;20117;-92
2023/07/14 00:56:15;;;;;;;3.15;2.85;;;;;;;22.55;60.40;99764.19;4306702;33;20092;-95
2023/07/14 00:58:42;;;;;;;3.62;2.78;;;;;;;22.45;60.40;99760.56;4313768;33;20104;-94
2023/07/14 01:01:24;;;;;;;7.45;2.47;;;;;;;22.54;60.41;99751.03;4309137;33;20112;-94
2023/07/14 01:03:55;;;;;;;4.15;2.95;;;;;;;22.25;60.40;99758.72;4302488;33;20168;-94
2023/07/14 01:06:34;;;;;;;4.62;3.10;;;;;;;22.23;60.39;99763.25;4310463;33;20091;-94
2023/07/14 01:09:06;;;;;;;4.95;2.92;;;;;;;22.37;60.40;99758.56;4312439;33;20131;-93
2023/07/14 01:11:34;;;;;;;6.00;2.87;;;;;;;22.34;60.40;99760.62;4292171;33;20113;-95
2023/07/14 01:14:01;;;;;;;3.80;2.92;;;;;;;22.18;60.39;99758.34;4309685;33;20093;-93
2023/07/14 01:16:26;;;;;;;4.70;3.50;;;;;;;22.37;60.40;99765.66;4312412;33;20099;-93
2023/07/14 01:18:52;;;;;;;9.63;3.70;;;;;;;22.29;60.39;99776.91;4321141;33;20183;-94
2023/07/14 01:21:17;;;;;;;4.97;3.08;;;;;;;22.32;60.39;99776.66;4291434;33;20446;-94
2023/07/14 01:23:50;;;;;;;6.68;3.40;;;;;;;22.35;60.40;99772.91;4306785;33;20701;-93
2023/07/14 01:26:27;;;;;;;5.80;3.55;;;;;;;22.42;60.40;99770.59;4305079;33;20096;-95
2023/07/14 01:28:56;;;;;;;8.25;3.42;;;;;;;22.24;60.38;99770.25;4307508;33;20116;-94
2023/07/14 01:31:24;;;;;;;9.00;3.33;;;;;;;22.03;60.38;99771.00;4306927;33;20492;-95
2023/07/14 01:34:37;;;;;;;6.62;3.67;;;;;;;22.18;60.39;99774.25;4304707;33;20064;-94
2023/07/14 01:36:58;;;;;;;;;;;;;;;;;;;;;
2023/07/14 01:39:28;;;;;;;5.12;3.20;;;;;;;22.02;60.37;99776.41;4307483;33;35560;-94
2023/07/14 01:41:53;;;;;;;6.97;3.35;;;;;;;22.01;60.37;99780.87;4309648;33;20133;-95
2023/07/14 01:44:19;;;;;;;5.37;3.58;;;;;;;21.96;60.38;99776.88;4309706;33;20119;-95
2023/07/14 01:46:46;;;;;;;3.97;3.10;;;;;;;22.02;60.38;99771.94;4306934;33;20130;-94
2023/07/14 01:49:24;;;;;;;4.87;3.15;;;;;;;21.91;60.37;99774.59;4283523;33;20127;-95
2023/07/14 01:51:50;;;;;;;5.18;3.58;;;;;;;21.86;60.36;99774.13;4305475;33;20075;-96
2023/07/14 01:54:30;;;;;;;5.90;3.85;;;;;;;22.07;60.38;99768.12;4311249;33;20136;-96
2023/07/14 01:56:56;;;;;;;9.70;3.45;;;;;;;21.97;60.38;99771.44;4304408;33;20104;-95
2023/07/14 01:59:32;;;;;;;7.12;3.60;;;;;;;21.93;60.37;99777.97;4316189;33;20077;-94
2023/07/14 02:05:25;;;;;;;7.60;2.90;;;;;;;21.89;60.38;99773.88;4303150;33;20122;-95
2023/07/14 02:07:50;;;;;;;4.60;3.00;;;;;;;22.00;60.37;99770.38;4292013;33;20112;-96
2023/07/14 02:10:17;;;;;;;6.70;3.83;;;;;;;21.90;60.37;99766.75;4281048;33;20139;-94
2023/07/14 02:12:46;;;;;;;6.90;3.15;;;;;;;21.88;60.37;99769.53;4281409;33;20099;-96
2023/07/14 02:15:17;;;;;;;5.03;3.87;;;;;;;21.79;60.36;99772.06;4315755;33;20734;-95
2023/07/14 02:20:37;;;;;;;8.40;3.83;;;;;;;21.74;60.37;99772.41;4315549;33;20458;-95
2023/07/14 02:23:04;;;;;;;5.90;3.40;;;;;;;21.83;60.37;99773.50;4306923;33;20470;-96
2023/07/14 02:26:10;;;;;;;6.62;3.17;;;;;;;21.95;60.38;99785.78;4318035;33;20134;-96
2023/07/14 02:29:28;;;;;;;6.62;3.80;;;;;;;21.60;60.35;99789.38;4304674;33;20114;-96
2023/07/14 02:32:21;;;;;;;5.30;3.60;;;;;;;21.63;60.35;99789.16;4318203;33;20663;-96
2023/07/14 02:35:02;;;;;;;5.80;3.65;;;;;;;21.52;60.35;99797.06;4309168;33;20155;-96
2023/07/14 02:40:41;;;;;;;4.45;3.33;;;;;;;21.40;60.33;99806.78;4299251;33;20122;-95
2023/07/14 02:43:13;;;;;;;5.10;3.78;;;;;;;21.39;60.34;99807.75;4284966;33;20135;-96
2023/07/14 02:45:52;;;;;;;7.20;3.78;;;;;;;21.11;60.33;99813.41;4306238;33;20168;-96
2023/07/14 02:52:59;;;;;;;4.22;3.37;;;;;;;21.23;60.33;99831.00;4266667;33;20152;-94
2023/07/14 02:54:57;;;;;;;5.47;3.53;;;;;;;21.22;60.33;99831.13;4295076;33;20157;-94
2023/07/14 02:57:24;;;;;;;4.82;3.20;;;;;;;21.37;60.34;99830.88;4279416;33;20548;-94
2023/07/14 02:59:58;;;;;;;8.07;3.05;;;;;;;21.44;60.35;99821.47;4279304;33;20097;-94
2023/07/14 03:02:37;;;;;;;6.37;3.67;;;;;;;21.38;60.34;99829.06;4286363;33;20077;-94
2023/07/14 03:05:05;;;;;;;8.10;3.50;;;;;;;21.46;60.34;99824.03;4281096;33;20108;-95
2023/07/14 03:07:34;;;;;;;6.62;4.03;;;;;;;21.48;60.35;99819.44;4257278;33;20143;-95
2023/07/14 03:10:00;;;;;;;6.80;3.10;;;;;;;21.62;60.35;99816.59;4266796;33;20097;-96
2023/07/14 03:12:28;;;;;;;4.95;2.90;;;;;;;21.64;60.36;99827.06;4268136;33;20096;-95
2023/07/14 03:14:59;;;;;;;7.20;3.60;;;;;;;21.35;60.34;99830.12;4270689;33;20112;-95
2023/07/14 03:17:44;;;;;;;6.05;3.33;;;;;;;21.51;60.35;99829.81;4280613;33;20095;-95
2023/07/14 03:20:40;;;;;;;4.90;3.42;;;;;;;21.80;60.36;99824.94;4258667;33;20140;-94
2023/07/14 03:23:23;;;;;;;;;;;;;;;;;;;;;
2023/07/14 03:26:05;;;;;;;5.22;3.12;;;;;;;21.71;60.36;99831.78;4267643;33;36230;-95
2023/07/14 03:28:35;;;;;;;3.67;3.00;;;;;;;21.61;60.35;99829.97;4584476;27;20111;-96
2023/07/14 03:31:01;;;;;;;4.30;2.97;;;;;;;21.65;60.36;99824.31;4309925;33;20092;-95
2023/07/14 03:33:39;;;;;;;;;;;;;;;;;;;;;
2023/07/14 03:39:58;;;;;;;4.57;2.75;;;;;;;21.69;60.35;99825.75;4296690;33;20123;-95
2023/07/14 03:42:43;;;;;;;5.65;2.80;;;;;;;21.61;60.35;99827.31;4295236;33;20093;-94
2023/07/14 03:45:09;;;;;;;6.43;2.95;;;;;;;21.75;60.36;99838.53;4295447;33;20100;-96
2023/07/14 03:50:33;;;;;;;3.50;2.60;;;;;;;21.76;60.36;99834.91;4343941;27;20155;-94
2023/07/14 03:53:04;;;;;;;6.45;2.58;;;;;;;21.71;60.36;99838.88;4302704;33;20091;-95
2023/07/14 03:56:23;;;;;;;;;;;;;;;;;;;;;
2023/07/14 03:58:59;;;;;;;5.25;2.65;;;;;;;21.90;60.37;99833.00;4330660;33;35946;-93
2023/07/14 04:01:27;;;;;;;6.32;2.50;;;;;;;21.94;60.37;99829.16;4300176;33;20100;-96
2023/07/14 04:03:54;;;;;;;5.37;2.87;;;;;;;21.95;60.36;99830.84;4305337;33;20115;-96
2023/07/14 04:06:25;;;;;;;7.60;2.62;;;;;;;22.00;60.37;99821.59;4305317;33;20072;-96
2023/07/14 04:08:55;;;;;;;7.95;3.00;;;;;;;22.05;60.37;99827.41;4311635;33;20123;-96
2023/07/14 04:11:21;;;;;;;4.60;2.50;;;;;;;22.04;60.37;99823.06;4314136;33;20108;-95
2023/07/14 04:14:18;;;;;;;4.25;2.70;;;;;;;22.09;60.37;99829.81;4299911;33;20100;-95
2023/07/14 04:16:51;;;;;;;6.97;2.50;;;;;;;22.11;60.38;99833.19;4311184;33;20652;-96
2023/07/14 04:19:41;;;;;;;3.97;2.70;;;;;;;22.05;60.37;99832.72;4300096;33;20103;-96
2023/07/14 04:26:39;;;;;;;;;;;;;;;;;;;;;
2023/07/14 04:33:22;;;;;;;;;;;;;;;;;;;;;
2023/07/14 04:35:54;;;;;;;5.93;3.08;;;;;;;22.58;60.40;99853.28;4243816;33;35234;-96
2023/07/14 04:38:30;;;;;;;7.15;2.95;;;;;;;22.80;60.42;99858.56;4283041;33;20404;-95
2023/07/14 04:42:16;;;;;;;6.22;3.78;;;;;;;22.66;60.41;99861.47;4301661;33;20156;-95
2023/07/14 04:45:17;;;;;;;;;;;;;;;;;;;;;
2023/07/14 04:48:36;;;;;;;;;;;;;;;;;;;;;
2023/07/14 04:57:57;;;;;;;14.90;4.80;;;;;;;23.23;60.43;99873.69;4280968;33;20148;-95
2023/07/14 05:00:22;;;;;;;10.23;3.80;;;;;;;23.44;60.45;99879.87;4297464;33;20127;-94
2023/07/14 05:02:54;;;;;;;7.03;3.20;;;;;;;23.51;60.45;99889.00;4294344;33;20176;-94
2023/07/14 05:05:21;;;;;;;5.50;3.10;;;;;;;23.63;60.46;99884.50;4282045;33;20099;-94
2023/07/14 05:07:48;;;;;;;5.12;3.17;;;;;;;23.85;60.47;99889.69;4293934;33;20825;-94
2023/07/14 05:10:23;;;;;;;8.13;3.87;;;;;;;23.94;60.47;99900.53;4282218;33;20183;-93
2023/07/14 05:13:02;;;;;;;6.90;3.35;;;;;;;23.93;60.47;99901.50;4282496;33;20508;-95
2023/07/14 05:15:37;;;;;;;5.07;3.20;;;;;;;23.84;60.46;99903.94;4310344;33;20118;-95
2023/07/14 05:18:02;;;;;;;8.30;3.47;;;;;;;24.00;60.48;99900.84;4297587;33;20698;-94
2023/07/14 05:21:00;;;;;;;;;;;;;;;;;;;;;
2023/07/14 05:23:28;;;;;;;11.75;3.78;;;;;;;24.29;60.48;99905.50;4323052;33;36700;-95
2023/07/14 05:26:01;;;;;;;8.40;4.10;;;;;;;24.41;60.49;99915.94;4298215;33;20192;-95
2023/07/14 05:28:29;;;;;;;6.90;3.40;;;;;;;24.55;60.50;99916.53;4310067;33;20131;-94
2023/07/14 05:31:42;;;;;;;4.95;2.75;;;;;;;24.67;60.50;99916.31;4297937;33;20116;-95
2023/07/14 05:34:55;;;;;;;;;;;;;;;;;;;;;
2023/07/14 05:37:46;;;;;;;10.57;3.60;;;;;;;25.06;60.52;99905.78;4337423;33;35614;-94
2023/07/14 05:40:37;;;;;;;8.40;3.47;;;;;;;25.19;60.53;99910.84;4319070;33;20118;-95
2023/07/14 05:43:48;;;;;;;6.45;3.30;;;;;;;25.15;60.54;99910.28;4311683;33;20162;-95
2023/07/14 05:49:54;;;;;;;4.97;2.23;;;;;;;25.57;60.55;99904.72;4332826;33;20087;-96
2023/07/14 05:55:55;;;;;;;3.55;2.83;;;;;;;25.77;60.56;99917.06;4259322;33;20487;-94
2023/07/14 05:58:36;;;;;;;3.70;2.90;;;;;;;25.88;60.57;99914.25;4270448;33;20231;-94
2023/07/14 06:04:39;;;;;;;6.80;3.22;;;;;;;26.21;60.58;99909.37;4270252;33;20104;-95
2023/07/14 06:06:57;;;;;;;8.60;3.92;;;;;;;26.08;60.58;99911.53;4259740;33;20177;-95
2023/07/14 06:09:40;;;;;;;10.00;3.85;;;;;;;26.01;60.57;99905.91;4248910;33;20176;-95
2023/07/14 06:12:06;;;;;;;5.12;3.55;;;;;;;26.14;60.58;99914.47;4249674;33;20109;-93
2023/07/14 06:14:35;;;;;;;5.47;3.28;;;;;;;26.51;60.60;99909.19;4303320;33;20100;-92
2023/07/14 06:20:55;;;;;;;5.18;3.25;;;;;;;26.37;60.60;99917.66;4311849;33;20147;-93
2023/07/14 06:23:20;;;;;;;7.68;3.80;;;;;;;26.64;60.62;99914.16;4314826;33;20072;-93
2023/07/14 06:26:30;;;;;;;4.72;3.03;;;;;;;26.70;60.61;99920.75;4302204;33;20138;-94
2023/07/14 06:29:03;;;;;;;4.10;3.30;;;;;;;26.85;60.62;99919.28;4317039;33;20155;-95
2023/07/14 06:31:36;;;;;;;6.82;4.20;;;;;;;26.91;60.62;99924.84;4301544;33;20077;-95
2023/07/14 06:34:01;;;;;;;7.97;4.30;;;;;;;27.16;60.64;99919.81;4296419;33;20121;-96
2023/07/14 06:36:27;;;;;;;4.05;3.10;;;;;;;27.46;60.65;99924.81;4293553;33;20123;-96
2023/07/14 06:38:52;;;;;;;6.37;3.30;;;;;;;27.62;60.66;99924.13;4301256;33;20112;-95
2023/07/14 06:41:25;;;;;;;4.22;2.85;;;;;;;27.67;60.65;99927.16;4300844;33;20154;-94
2023/07/14 06:43:51;;;;;;;6.20;3.30;;;;;;;27.85;60.68;99929.00;4307251;33;20056;-93
2023/07/14 06:46:17;;;;;;;4.00;3.28;;;;;;;28.00;60.68;99925.59;4291690;33;20261;-94
2023/07/14 06:48:52;;;;;;;4.57;3.20;;;;;;;28.10;60.68;99925.50;4319969;33;20091;-94
2023/07/14 06:51:18;;;;;;;5.10;3.22;;;;;;;27.91;60.67;99918.50;4294862;33;20100;-94
2023/07/14 06:53:45;;;;;;;4.15;3.15;;;;;;;28.18;60.69;99919.38;4315554;33;20370;-93
2023/07/14 06:56:10;;;;;;;5.15;3.20;;;;;;;28.40;60.70;99919.72;4305542;33;20134;-93
2023/07/14 06:58:36;;;;;;;5.65;3.22;;;;;;;28.40;60.70;99921.53;4293230;33;20148;-95
2023/07/14 07:01:02;;;;;;;4.97;2.80;;;;;;;28.48;60.71;99923.41;4317258;33;21454;-94
2023/07/14 07:03:27;;;;;;;3.62;2.80;;;;;;;28.70;60.71;99920.19;4302595;33;20114;-95
2023/07/14 07:05:53;;;;;;;7.05;2.83;;;;;;;28.91;60.72;99917.94;4298515;33;20112;-94
2023/07/14 07:08:19;;;;;;;6.15;2.97;;;;;;;28.92;60.72;99914.25;4296401;33;20138;-93
2023/07/14 07:10:47;;;;;;;6.65;3.12;;;;;;;29.15;60.74;99921.69;4308095;33;20084;-94
2023/07/14 07:13:13;;;;;;;3.80;3.03;;;;;;;29.16;60.73;99916.16;4308634;33;20113;-93
2023/07/14 07:15:39;;;;;;;5.03;2.80;;;;;;;29.30;60.74;99925.37;4296179;33;20151;-93
2023/07/14 07:18:05;;;;;;;6.85;3.22;;;;;;;29.40;60.75;99925.25;4296128;33;20397;-95
2023/07/14 07:20:30;;;;;;;4.20;2.87;;;;;;;29.49;60.75;99922.44;4295896;33;20126;-94
2023/07/14 07:22:56;;;;;;;3.70;2.58;;;;;;;29.66;60.77;99917.09;4296294;33;20178;-95
2023/07/14 07:25:21;;;;;;;4.60;2.75;;;;;;;29.67;60.77;99929.50;4298008;33;20111;-94
2023/07/14 07:27:47;;;;;;;10.77;2.70;;;;;;;29.65;60.76;99924.28;4299365;33;20175;-94
2023/07/14 07:30:14;;;;;;;3.00;2.70;;;;;;;29.47;60.75;99931.66;4298144;33;20104;-94
2023/07/14 07:32:41;;;;;;;5.15;3.12;;;;;;;29.60;60.76;99935.53;4298456;33;20253;-95
2023/07/14 07:35:07;;;;;;;6.97;3.37;;;;;;;29.33;60.76;99933.94;4299245;33;20116;-95
2023/07/14 07:37:33;;;;;;;4.60;2.62;;;;;;;29.43;60.76;99931.13;4298362;33;20788;-94
2023/07/14 07:39:59;;;;;;;4.35;3.60;;;;;;;29.42;60.76;99929.44;4297821;33;20142;-94
2023/07/14 07:42:25;;;;;;;3.97;2.90;;;;;;;29.54;60.76;99929.97;4310340;33;20154;-93
2023/07/14 07:44:50;;;;;;;3.67;2.47;;;;;;;29.50;60.76;99937.53;4298065;33;20182;-93
2023/07/14 07:47:15;;;;;;;5.18;3.08;;;;;;;29.73;60.77;99921.59;4298214;33;20155;-93
2023/07/14 07:49:41;;;;;;;3.83;2.87;;;;;;;29.75;60.77;99927.63;4298864;33;20174;-94
2023/07/14 07:52:07;;;;;;;4.60;2.87;;;;;;;29.70;60.77;99931.84;4321374;32;20064;-92
2023/07/14 07:54:37;;;;;;;4.22;3.00;;;;;;;29.69;60.77;99932.84;4314797;33;20158;-93
2023/07/14 07:57:03;;;;;;;4.62;2.80;;;;;;;29.77;60.78;99928.31;4298726;33;20064;-93
2023/07/14 07:59:28;;;;;;;3.10;2.65;;;;;;;29.87;60.77;99930.84;4297209;33;20158;-92
2023/07/14 08:01:57;;;;;;;3.58;2.47;;;;;;;29.97;60.79;99927.97;4297307;33;20142;-93
2023/07/14 08:04:22;;;;;;;3.50;2.58;;;;;;;29.90;60.79;99923.28;4308885;33;20130;-92
2023/07/14 08:06:48;;;;;;;3.25;2.58;;;;;;;29.94;60.78;99924.63;4309160;33;20413;-92
2023/07/14 08:09:13;;;;;;;3.08;2.70;;;;;;;30.19;60.79;99921.91;4297152;33;20104;-93
2023/07/14 08:11:39;;;;;;;5.25;2.40;;;;;;;30.03;60.79;99922.78;4297187;33;20143;-92
2023/07/14 08:14:07;;;;;;;3.37;2.33;;;;;;;29.98;60.79;99933.16;4320894;33;24627;-93
2023/07/14 08:16:33;;;;;;;4.30;2.37;;;;;;;30.00;60.79;99925.78;4297615;33;20146;-93
2023/07/14 08:18:59;;;;;;;3.10;2.20;;;;;;;30.03;60.79;99929.97;4297159;33;20389;-93
2023/07/14 08:21:25;;;;;;;3.40;2.22;;;;;;;30.23;60.81;99925.94;4297430;33;20127;-93
2023/07/14 08:23:50;;;;;;;4.12;2.60;;;;;;;30.52;60.81;99917.28;4297147;33;20104;-92
2023/07/14 08:26:16;;;;;;;3.47;2.53;;;;;;;30.59;60.81;99918.28;4296979;33;20165;-92
2023/07/14 08:28:41;;;;;;;3.72;2.17;;;;;;;30.78;60.83;99917.91;4297233;33;20111;-92
2023/07/14 08:31:09;;;;;;;3.25;2.22;;;;;;;30.81;60.82;99914.03;4297085;33;20114;-91
2023/07/14 08:33:35;;;;;;;2.65;2.00;;;;;;;30.59;60.82;99920.97;4297062;33;20137;-90
2023/07/14 08:36:01;;;;;;;2.95;2.20;;;;;;;30.85;60.83;99924.25;4308627;33;20111;-90
2023/07/14 08:38:39;;;;;;;3.87;2.20;;;;;;;30.81;60.83;99920.25;4297161;33;20143;-90
2023/07/14 08:41:23;;;;;;;4.10;2.25;;;;;;;30.96;60.83;99925.69;4322068;33;20151;-90
2023/07/14 08:44:01;;;;;;;2.67;2.05;;;;;;;31.34;60.86;99920.47;4321178;33;20116;-90
2023/07/14 08:47:01;;;;;;;5.47;1.98;;;;;;;31.33;60.86;99918.78;4334670;33;20090;-89
2023/07/14 08:49:28;;;;;;;3.35;2.05;;;;;;;31.64;60.88;99918.72;4292823;33;20129;-89
2023/07/14 08:51:58;;;;;;;2.97;1.77;;;;;;;31.95;60.90;99922.19;4321046;33;20618;-87
2023/07/14 08:54:26;;;;;;;4.93;2.20;;;;;;;32.11;60.89;99917.66;4309418;33;20126;-87
2023/07/14 08:56:52;;;;;;;2.05;1.80;;;;;;;32.26;60.90;99915.84;4334598;33;20166;-87
2023/07/14 08:59:38;;;;;;;2.45;2.00;;;;;;;32.26;60.90;99924.75;4334365;33;20390;-88
2023/07/14 09:02:32;;;;;;;1.92;1.70;;;;;;;32.48;60.91;99919.47;4321228;33;20163;-87
2023/07/14 09:05:42;;;;;;;2.08;1.70;;;;;;;32.71;60.93;99920.19;4277592;33;20103;-88
2023/07/14 09:08:10;;;;;;;3.00;2.00;;;;;;;33.06;60.94;99915.88;4274335;33;20108;-88
2023/07/14 09:11:12;;;;;;;2.17;1.80;;;;;;;33.16;60.95;99913.72;4262928;33;20100;-88
2023/07/14 09:13:50;;;;;;;2.35;1.67;;;;;;;33.35;60.96;99924.91;4307227;33;20096;-88
2023/07/14 09:16:18;;;;;;;1.80;1.60;;;;;;;33.59;60.97;99919.13;4310877;33;20139;-88
2023/07/14 09:19:03;;;;;;;3.42;1.77;;;;;;;33.59;60.97;99929.94;4310729;33;20135;-88
2023/07/14 09:21:39;;;;;;;5.45;2.05;;;;;;;33.63;60.97;99925.84;4345427;33;20064;-87
2023/07/14 09:24:24;;;;;;;3.83;1.60;;;;;;;33.39;60.95;99926.22;4322082;33;20438;-87
2023/07/14 09:26:52;;;;;;;1.87;1.67;;;;;;;33.65;60.98;99929.19;4320369;33;20171;-88
2023/07/14 09:29:19;;;;;;;2.75;1.80;;;;;;;33.58;60.97;99921.00;4308767;33;20172;-88
2023/07/14 09:31:50;;;;;;;3.15;1.92;;;;;;;33.54;60.96;99924.28;4308505;33;20096;-89
2023/07/14 09:34:42;;;;;;;2.97;2.17;;;;;;;33.54;60.96;99929.69;4309046;33;20491;-88
2023/07/14 09:37:20;;;;;;;2.80;1.98;;;;;;;33.37;60.96;99922.91;4333794;33;20511;-89
2023/07/14 09:39:45;;;;;;;5.65;1.70;;;;;;;33.40;60.97;99920.62;4309097;33;20178;-90
2023/07/14 09:42:26;;;;;;;2.12;1.70;;;;;;;33.06;60.94;99905.09;4296413;33;20150;-89
2023/07/14 09:44:54;;;;;;;2.08;1.60;;;;;;;33.22;60.95;99918.34;4296791;33;20467;-88
2023/07/14 09:47:19;;;;;;;1.58;1.35;;;;;;;32.86;60.94;99922.88;4307552;33;20170;-89
2023/07/14 09:49:48;;;;;;;1.92;1.60;;;;;;;32.42;60.91;99917.53;4319863;33;20204;-88
2023/07/14 09:52:23;;;;;;;2.75;1.80;;;;;;;32.35;60.92;99915.56;4308083;33;20096;-88
2023/07/14 09:54:51;;;;;;;3.10;1.62;;;;;;;32.16;60.90;99915.22;4308184;33;20143;-89
2023/07/14 09:57:17;;;;;;;2.10;1.90;;;;;;;32.03;60.89;99915.88;4320763;33;20173;-88
2023/07/14 09:59:50;;;;;;;1.98;1.67;;;;;;;32.15;60.91;99913.56;4320254;33;20186;-89
2023/07/14 10:02:16;;;;;;;1.75;1.62;;;;;;;32.08;60.90;99916.16;4320861;33;20175;-90
2023/07/14 10:04:41;;;;;;;4.47;1.90;;;;;;;31.99;60.90;99910.03;4296537;33;20124;-89
2023/07/14 10:07:22;;;;;;;2.37;1.48;;;;;;;31.95;60.90;99911.44;4295981;33;20108;-88
2023/07/14 10:09:58;;;;;;;2.37;1.80;;;;;;;32.17;60.90;99914.22;4308829;33;20191;-89
2023/07/14 10:12:24;;;;;;;3.62;1.62;;;;;;;32.26;60.91;99905.06;4308850;33;20119;-89
2023/07/14 10:14:50;;;;;;;6.55;2.10;;;;;;;32.31;60.91;99906.19;4308098;33;20096;-89
2023/07/14 10:17:26;;;;;;;3.58;2.00;;;;;;;32.48;60.92;99896.06;4320468;33;20166;-89
2023/07/14 10:19:52;;;;;;;3.92;1.80;;;;;;;32.69;60.94;99900.69;4296012;33;20175;-89
2023/07/14 10:22:19;;;;;;;2.40;1.70;;;;;;;32.92;60.94;99896.03;4296360;33;20104;-89
2023/07/14 10:24:45;;;;;;;3.42;1.70;;;;;;;33.21;60.96;99896.94;4308807;33;20099;-90
2023/07/14 10:27:19;;;;;;;5.70;1.90;;;;;;;33.48;60.98;99887.28;4320585;33;20145;-89
2023/07/14 10:29:48;;;;;;;2.22;2.00;;;;;;;33.58;60.98;99885.91;4320521;33;20135;-89
2023/07/14 10:32:26;;;;;;;3.37;2.10;;;;;;;33.72;60.99;99888.72;4320337;33;20088;-90
2023/07/14 10:34:56;;;;;;;2.33;1.90;;;;;;;33.40;60.97;99890.12;4309013;33;20091;-90
2023/07/14 10:37:27;;;;;;;2.33;2.12;;;;;;;33.53;60.97;99888.38;4308721;33;20100;-90
2023/07/14 10:40:29;;;;;;;3.25;2.40;;;;;;;33.81;60.99;99880.28;4321076;33;20091;-90
2023/07/14 10:42:57;;;;;;;4.15;2.10;;;;;;;33.97;61.00;99879.19;4286069;33;20083;-90
2023/07/14 10:45:25;;;;;;;3.77;2.90;;;;;;;34.14;61.01;99868.91;4309629;33;20106;-90
2023/07/14 10:48:14;;;;;;;4.35;2.53;;;;;;;34.32;61.02;99871.09;4298232;33;20127;-91
2023/07/14 10:51:05;;;;;;;4.35;2.70;;;;;;;34.40;61.01;99870.97;4307949;33;20115;-90
2023/07/14 10:53:32;;;;;;;4.85;2.22;;;;;;;34.14;61.00;99868.91;4311845;33;20111;-90
2023/07/14 10:55:59;;;;;;;2.97;2.47;;;;;;;33.92;61.00;99873.56;4308274;33;20586;-90
2023/07/14 10:58:30;;;;;;;3.78;2.22;;;;;;;33.70;60.98;99867.34;4308095;33;20111;-89
2023/07/14 11:01:00;;;;;;;3.90;2.60;;;;;;;33.88;61.00;99866.03;4321925;33;20133;-89
2023/07/14 11:03:42;;;;;;;6.55;2.78;;;;;;;33.70;60.98;99867.34;4297941;33;20458;-89
2023/07/14 11:06:14;;;;;;;3.90;2.60;;;;;;;33.64;60.98;99862.72;4310236;33;20084;-89
2023/07/14 11:08:39;;;;;;;4.65;2.95;;;;;;;33.78;60.98;99859.06;4309723;33;20150;-90
2023/07/14 11:11:24;;;;;;;5.22;2.67;;;;;;;33.80;61.00;99854.31;4309563;33;20787;-90
2023/07/14 11:14:01;;;;;;;3.12;2.83;;;;;;;33.61;60.98;99857.72;4321594;33;20524;-90
2023/07/14 11:16:40;;;;;;;4.05;2.55;;;;;;;33.64;60.97;99856.50;4321525;33;20191;-90
2023/07/14 11:19:08;;;;;;;4.67;3.30;;;;;;;33.54;60.98;99851.41;4310777;33;20150;-90
2023/07/14 11:22:00;;;;;;;6.55;3.20;;;;;;;33.77;60.99;99852.00;4309969;33;20095;-89
2023/07/14 11:24:39;;;;;;;3.65;2.62;;;;;;;33.56;60.98;99844.78;4322037;33;20175;-90
2023/07/14 11:27:19;;;;;;;5.93;2.80;;;;;;;33.52;60.98;99845.38;4309857;33;20126;-91
2023/07/14 11:29:52;;;;;;;6.05;3.40;;;;;;;33.65;60.99;99845.50;4298025;33;20183;-88
2023/07/14 11:32:20;;;;;;;3.78;2.97;;;;;;;33.35;60.97;99847.50;4309662;33;20131;-89
2023/07/14 11:35:00;;;;;;;5.07;3.17;;;;;;;33.43;60.97;99843.84;4321931;33;20095;-89
2023/07/14 11:37:37;;;;;;;;;;;;;;;33.31;60.96;99842.66;4298089;33;20682;-89
2023/07/14 11:40:11;;;;;;;3.28;2.60;;;;;;;33.62;60.99;99845.88;4335035;33;19979;-89
2023/07/14 11:42:38;;;;;;;3.20;2.90;;;;;;;33.64;60.99;99841.13;4297703;33;20154;-89
2023/07/14 11:45:09;;;;;;;4.70;2.60;;;;;;;33.52;60.98;99839.97;4321877;33;20126;-89
2023/07/14 11:47:37;;;;;;;5.85;2.80;;;;;;;33.59;60.98;99838.16;4309523;33;20114;-89
2023/07/14 11:50:29;;;;;;;4.78;2.92;;;;;;;33.55;60.99;99834.19;4321363;33;20088;-88
2023/07/14 11:53:06;;;;;;;6.30;2.92;;;;;;;33.26;60.96;99844.09;4310914;33;20096;-89
2023/07/14 11:55:33;;;;;;;5.40;2.95;;;;;;;33.09;60.96;99834.56;4335103;33;20086;-89
2023/07/14 11:58:12;;;;;;;3.90;2.42;;;;;;;33.44;60.97;99834.72;4309438;33;20095;-89
2023/07/14 12:00:39;;;;;;;3.55;2.70;;;;;;;33.63;60.99;99836.75;4321711;33;20099;-89
2023/07/14 12:03:09;;;;;;;3.08;2.75;;;;;;;33.58;60.98;99834.63;4297311;33;20099;-89
2023/07/14 12:05:38;;;;;;;5.72;2.80;;;;;;;33.26;60.97;99844.09;4298273;33;20113;-89
2023/07/14 12:08:04;;;;;;;4.62;2.42;;;;;;;33.23;60.97;99838.25;4310029;33;20118;-89
2023/07/14 12:10:38;;;;;;;3.73;2.77;;;;;;;33.42;60.98;99837.62;4334369;33;20163;-89
2023/07/14 12:13:32;;;;;;;7.25;2.75;;;;;;;33.03;60.95;99835.34;4321890;33;20803;-88
2023/07/14 12:15:57;;;;;;;4.62;3.05;;;;;;;33.18;60.96;99827.19;4312724;33;20095;-89
2023/07/14 12:18:36;;;;;;;3.17;2.30;;;;;;;33.12;60.95;99828.78;4336590;33;20561;-88
2023/07/14 12:21:17;;;;;;;3.37;2.53;;;;;;;33.41;60.98;99817.06;4332720;33;20162;-88
2023/07/14 12:23:49;;;;;;;7.03;2.83;;;;;;;33.33;60.97;99817.19;4336912;32;20107;-89
2023/07/14 12:26:36;;;;;;;3.03;2.50;;;;;;;33.22;60.96;99821.22;4321305;33;20083;-90
2023/07/14 12:29:12;;;;;;;6.18;2.55;;;;;;;33.23;60.97;99814.78;4334470;33;20151;-89
2023/07/14 12:31:39;;;;;;;5.00;2.65;;;;;;;33.36;60.97;99808.72;4310462;33;20118;-89
2023/07/14 12:34:04;;;;;;;3.80;2.20;;;;;;;33.42;60.97;99807.94;4297437;33;20167;-90
2023/07/14 12:36:31;;;;;;;2.97;2.65;;;;;;;33.42;60.98;99804.41;4309409;33;20401;-89
2023/07/14 12:38:57;;;;;;;3.37;2.40;;;;;;;33.30;60.96;99812.16;4321364;33;20079;-87
2023/07/14 12:41:29;;;;;;;2.90;2.50;;;;;;;33.24;60.97;99808.38;4321167;33;20104;-90
2023/07/14 12:43:56;;;;;;;5.07;2.97;;;;;;;33.61;60.98;99806.44;4309394;33;20179;-89
2023/07/14 12:46:26;;;;;;;3.55;2.80;;;;;;;33.95;61.00;99800.22;4308892;33;20114;-89
2023/07/14 12:49:10;;;;;;;4.07;3.40;;;;;;;34.20;61.01;99797.88;4321047;33;20124;-89
2023/07/14 12:51:37;;;;;;;3.90;2.97;;;;;;;34.69;61.03;99794.13;4309357;33;20103;-90
2023/07/14 12:54:13;;;;;;;4.30;3.05;;;;;;;34.84;61.05;99785.84;4308916;33;20138;-89
2023/07/14 12:56:38;;;;;;;3.35;2.65;;;;;;;34.73;61.03;99792.66;4322162;33;20366;-89
2023/07/14 12:59:04;;;;;;;3.65;2.60;;;;;;;34.51;61.02;99785.75;4309045;33;20195;-89
2023/07/14 13:01:29;;;;;;;3.05;2.25;;;;;;;34.77;61.04;99789.34;4334604;33;20118;-89
2023/07/14 13:03:55;;;;;;;4.00;2.20;;;;;;;34.77;61.04;99783.94;4309063;33;20151;-90
2023/07/14 13:06:22;;;;;;;4.00;2.55;;;;;;;34.73;61.03;99784.56;4320891;33;20096;-90
2023/07/14 13:08:49;;;;;;;5.35;2.58;;;;;;;35.02;61.05;99772.59;4308957;33;20109;-89